Time;durP1;ratioP1;P1;durP2;ratioP2;P2;SDS_P1;SDS_P2;PMS_P1;PMS_P2;Temp;Humidity;BMP_temperature;BMP_pressure;BME280_temperature;BME280_humidity;BME280_pressure;Samples;Min_cycle;Max_cycle;Signal;HPM_P1;HPM_P2
2023/12/17 00:00:39;;;;;;;20.40;8.70;;;;;;;7.20;64.05;100292.28;4410310;32;20105;-82
2023/12/17 00:03:06;;;;;;;23.42;9.00;;;;;;;6.56;66.79;100290.06;4409480;32;20158;-82
2023/12/17 00:05:47;;;;;;;20.75;8.23;;;;;;;6.02;68.25;100285.25;4410475;32;20628;-82
2023/12/17 00:08:19;;;;;;;23.02;9.27;;;;;;;6.50;67.99;100284.91;4410218;32;20066;-82
2023/12/17 00:10:48;;;;;;;22.50;8.90;;;;;;;6.34;68.50;100277.87;4410564;32;20094;-82
2023/12/17 00:13:16;;;;;;;23.52;9.05;;;;;;;5.87;70.91;100267.13;4410575;32;20093;-82
2023/12/17 00:15:43;;;;;;;22.17;9.43;;;;;;;5.59;72.94;100266.75;4408812;32;20424;-82
2023/12/17 00:18:11;;;;;;;23.67;9.60;;;;;;;5.99;72.14;100263.00;4410510;32;20090;-82
2023/12/17 00:20:39;;;;;;;21.10;9.65;;;;;;;5.62;73.65;100260.81;4410086;32;20126;-81
2023/12/17 00:23:07;;;;;;;22.98;10.10;;;;;;;5.50;72.68;100258.97;4410461;32;20100;-82
2023/12/17 00:25:34;;;;;;;26.50;9.80;;;;;;;5.95;72.37;100265.50;4410453;32;20098;-82
2023/12/17 00:28:01;;;;;;;23.58;9.23;;;;;;;5.80;72.39;100276.41;4409886;32;20177;-82
2023/12/17 00:30:28;;;;;;;21.02;8.57;;;;;;;6.56;68.94;100279.81;4410725;32;20090;-82
2023/12/17 00:32:55;;;;;;;22.77;9.73;;;;;;;6.54;68.15;100286.62;4410613;32;20098;-82
2023/12/17 00:35:23;;;;;;;25.67;9.88;;;;;;;6.00;70.94;100289.50;4410164;32;20667;-82
2023/12/17 00:37:50;;;;;;;20.20;8.80;;;;;;;6.29;69.27;100284.69;4410302;32;20110;-82
2023/12/17 00:40:17;;;;;;;19.75;8.70;;;;;;;6.51;67.91;100286.62;4410814;32;20146;-82
2023/12/17 00:42:44;;;;;;;23.23;9.63;;;;;;;6.12;69.75;100287.06;4410227;32;20086;-82
2023/12/17 00:45:11;;;;;;;22.08;8.95;;;;;;;6.14;70.20;100295.63;4410057;32;20154;-82
2023/12/17 00:47:38;;;;;;;22.00;9.80;;;;;;;5.85;71.97;100282.47;4410397;32;20159;-82
2023/12/17 00:50:06;;;;;;;23.73;9.88;;;;;;;5.79;71.50;100287.50;4410429;32;20109;-82
2023/12/17 00:52:33;;;;;;;21.87;8.82;;;;;;;5.91;71.44;100279.12;4411347;32;20081;-82
2023/12/17 00:55:00;;;;;;;21.20;8.77;;;;;;;6.10;71.08;100275.94;4410655;32;20141;-81
2023/12/17 00:57:27;;;;;;;22.95;9.00;;;;;;;6.69;68.40;100270.50;4396753;32;20120;-82
2023/12/17 00:59:55;;;;;;;21.02;8.23;;;;;;;6.68;67.93;100268.78;4410948;32;20106;-82
2023/12/17 01:02:22;;;;;;;19.60;8.35;;;;;;;6.87;67.75;100285.19;4410375;32;20104;-82
2023/12/17 01:04:49;;;;;;;18.77;8.48;;;;;;;7.37;65.43;100293.25;4411027;32;20160;-82
2023/12/17 01:07:16;;;;;;;22.15;8.38;;;;;;;7.42;64.14;100283.84;4410983;32;20062;-82
2023/12/17 01:09:43;;;;;;;22.83;8.18;;;;;;;6.94;65.25;100279.28;4410226;32;20110;-81
2023/12/17 01:12:09;;;;;;;19.23;7.50;;;;;;;7.67;62.68;100289.13;4410945;32;20054;-82
2023/12/17 01:14:36;;;;;;;19.58;7.90;;;;;;;7.33;64.11;100290.66;4410357;32;20428;-82
2023/12/17 01:17:04;;;;;;;19.75;8.65;;;;;;;6.91;66.27;100292.06;4409904;32;20162;-82
2023/12/17 01:19:34;;;;;;;24.77;8.88;;;;;;;6.69;67.20;100291.03;4396420;32;20106;-82
2023/12/17 01:22:02;;;;;;;20.98;8.77;;;;;;;6.47;68.06;100279.72;4397017;32;20165;-82
2023/12/17 01:24:29;;;;;;;20.40;8.18;;;;;;;7.12;66.05;100297.34;4409781;32;20476;-82
2023/12/17 01:26:56;;;;;;;21.27;9.10;;;;;;;6.79;66.72;100312.50;4396173;32;20124;-82
2023/12/17 01:29:23;;;;;;;23.73;8.52;;;;;;;7.41;64.54;100300.12;4410137;32;20094;-82
2023/12/17 01:31:50;;;;;;;21.65;8.68;;;;;;;7.44;64.38;100307.87;4396539;32;20411;-82
2023/12/17 01:34:19;;;;;;;19.02;7.68;;;;;;;7.51;64.11;100303.59;4410604;32;20118;-82
2023/12/17 01:36:46;;;;;;;18.27;8.20;;;;;;;7.91;62.58;100288.37;4411261;32;20094;-82
2023/12/17 01:39:13;;;;;;;19.52;8.00;;;;;;;7.45;63.46;100288.19;4411978;32;20114;-82
2023/12/17 01:41:40;;;;;;;18.67;8.00;;;;;;;7.73;62.94;100287.44;4413652;32;20112;-82
2023/12/17 01:44:07;;;;;;;19.73;8.57;;;;;;;7.49;63.88;100285.63;4412736;32;20496;-82
2023/12/17 01:46:35;;;;;;;20.75;8.23;;;;;;;7.53;63.55;100279.62;4410828;32;20094;-82
2023/12/17 01:49:02;;;;;;;19.65;8.35;;;;;;;7.52;63.41;100285.63;4410027;32;20094;-82
2023/12/17 01:51:31;;;;;;;22.35;8.88;;;;;;;6.70;65.94;100268.81;4410214;32;20488;-82
2023/12/17 01:53:59;;;;;;;22.20;8.98;;;;;;;6.85;66.58;100263.81;4409360;32;20148;-82
2023/12/17 01:56:26;;;;;;;20.37;8.63;;;;;;;6.79;66.71;100256.06;4409076;32;20094;-82
2023/12/17 01:58:53;;;;;;;18.62;8.27;;;;;;;7.10;65.79;100264.81;4408845;32;20185;-82
2023/12/17 02:01:21;;;;;;;20.85;8.38;;;;;;;7.17;65.82;100271.72;4410386;32;20094;-82
2023/12/17 02:03:49;;;;;;;22.67;9.40;;;;;;;7.79;63.29;100274.63;4410971;32;20085;-82
2023/12/17 02:06:16;;;;;;;18.85;8.23;;;;;;;8.00;62.57;100288.41;4410192;32;20104;-82
2023/12/17 02:08:43;;;;;;;20.33;8.80;;;;;;;7.81;63.02;100293.47;4411113;32;20153;-82
2023/12/17 02:11:10;;;;;;;22.05;9.35;;;;;;;8.10;61.49;100293.59;4411003;32;20109;-82
2023/12/17 02:13:37;;;;;;;20.90;8.98;;;;;;;7.91;61.47;100281.53;4410734;32;20153;-82
2023/12/17 02:16:04;;;;;;;18.37;9.20;;;;;;;7.37;63.09;100280.41;4411397;32;20108;-82
2023/12/17 02:18:31;;;;;;;19.70;8.20;;;;;;;7.47;63.32;100286.47;4410351;32;20108;-82
2023/12/17 02:20:59;;;;;;;20.70;8.68;;;;;;;7.02;64.06;100285.34;4410518;32;20412;-82
2023/12/17 02:23:26;;;;;;;23.67;8.95;;;;;;;7.18;63.54;100287.13;4411271;32;20077;-82
2023/12/17 02:25:53;;;;;;;22.15;9.07;;;;;;;7.23;62.30;100277.78;4411078;32;20094;-81
2023/12/17 02:28:20;;;;;;;20.85;8.68;;;;;;;6.39;64.73;100263.44;4410060;32;20150;-82
2023/12/17 02:30:47;;;;;;;23.87;8.48;;;;;;;5.92;67.04;100265.47;4410395;32;20103;-82
2023/12/17 02:33:14;;;;;;;18.40;8.57;;;;;;;6.17;66.15;100264.03;4410126;32;20085;-82
2023/12/17 02:35:43;;;;;;;22.60;9.02;;;;;;;6.07;67.06;100253.72;4409867;32;20117;-82
2023/12/17 02:38:10;;;;;;;23.75;9.18;;;;;;;5.96;67.82;100242.50;4411155;32;20105;-82
2023/12/17 02:40:37;;;;;;;19.30;8.98;;;;;;;6.39;65.85;100235.22;4410310;32;20145;-82
2023/12/17 02:43:04;;;;;;;23.02;8.30;;;;;;;6.40;65.41;100233.50;4408816;32;20054;-82
2023/12/17 02:45:31;;;;;;;19.20;7.72;;;;;;;7.18;63.93;100247.78;4409707;32;20160;-82
2023/12/17 02:47:58;;;;;;;19.48;9.05;;;;;;;7.11;63.20;100236.59;4409328;32;20590;-81
2023/12/17 02:50:25;;;;;;;17.33;7.43;;;;;;;7.22;62.61;100231.53;4409271;32;20189;-82
2023/12/17 02:52:52;;;;;;;21.12;7.18;;;;;;;6.70;65.69;100236.34;4409156;32;20128;-82
2023/12/17 02:55:19;;;;;;;17.37;7.43;;;;;;;6.46;68.02;100225.84;4408608;32;20091;-82
2023/12/17 02:57:46;;;;;;;19.02;7.40;;;;;;;6.37;68.20;100226.63;4409396;32;20118;-82
2023/12/17 03:00:13;;;;;;;19.83;7.30;;;;;;;6.31;69.10;100232.56;4409403;32;20106;-82
2023/12/17 03:02:40;;;;;;;22.25;7.75;;;;;;;6.49;68.71;100239.59;4409237;32;20102;-82
2023/12/17 03:05:08;;;;;;;19.15;8.00;;;;;;;6.62;67.64;100249.09;4409265;32;20468;-82
2023/12/17 03:07:35;;;;;;;17.52;7.12;;;;;;;6.56;67.44;100248.16;4410183;32;20168;-82
2023/12/17 03:10:02;;;;;;;17.90;7.55;;;;;;;6.24;68.80;100240.19;4410857;32;20137;-82
2023/12/17 03:12:29;;;;;;;19.42;8.02;;;;;;;6.35;68.33;100233.44;4410297;32;20135;-82
2023/12/17 03:14:56;;;;;;;18.37;7.53;;;;;;;6.33;68.05;100233.44;4411409;32;20150;-82
2023/12/17 03:17:23;;;;;;;20.10;7.72;;;;;;;6.14;68.25;100228.97;4410844;32;20156;-82
2023/12/17 03:19:50;;;;;;;20.67;8.15;;;;;;;5.68;69.89;100220.78;4411376;32;20160;-82
2023/12/17 03:22:17;;;;;;;21.15;8.88;;;;;;;6.04;68.50;100222.91;4411326;32;20070;-82
2023/12/17 03:24:44;;;;;;;21.83;8.73;;;;;;;6.49;67.20;100225.91;4411013;32;20090;-81
2023/12/17 03:27:11;;;;;;;19.62;8.10;;;;;;;6.05;69.13;100227.19;4411329;32;20108;-82
2023/12/17 03:29:38;;;;;;;21.17;8.30;;;;;;;5.87;69.58;100226.97;4411008;32;20090;-82
2023/12/17 03:32:05;;;;;;;20.88;8.30;;;;;;;5.39;71.82;100225.53;4410647;32;20086;-82
2023/12/17 03:34:32;;;;;;;19.90;8.18;;;;;;;5.62;71.16;100220.69;4411056;32;20160;-82
2023/12/17 03:37:00;;;;;;;20.75;8.70;;;;;;;5.73;69.68;100221.69;4410993;32;20104;-82
2023/12/17 03:39:27;;;;;;;21.60;9.15;;;;;;;5.73;70.53;100225.94;4411022;32;20094;-81
2023/12/17 03:41:54;;;;;;;21.83;7.87;;;;;;;5.43;70.94;100226.47;4411528;32;20090;-82
2023/12/17 03:44:21;;;;;;;22.20;8.93;;;;;;;5.56;70.39;100223.19;4410599;32;20108;-81
2023/12/17 03:46:48;;;;;;;21.52;8.63;;;;;;;5.25;71.72;100210.84;4410982;32;20106;-82
2023/12/17 03:49:15;;;;;;;20.00;8.68;;;;;;;5.11;71.47;100221.78;4410987;32;20094;-82
2023/12/17 03:51:42;;;;;;;22.02;8.68;;;;;;;5.12;72.15;100225.19;4410720;32;20448;-81
2023/12/17 03:54:09;;;;;;;26.95;9.57;;;;;;;5.46;71.06;100226.50;4411217;32;20108;-82
2023/12/17 03:56:36;;;;;;;22.10;8.85;;;;;;;5.82;69.69;100218.38;4411220;32;20128;-82
2023/12/17 03:59:04;;;;;;;22.13;7.85;;;;;;;5.64;70.42;100229.28;4410569;32;20396;-81
2023/12/17 04:01:31;;;;;;;24.48;8.93;;;;;;;5.74;70.74;100236.22;4410884;32;20429;-81
2023/12/17 04:03:58;;;;;;;19.87;8.30;;;;;;;5.70;71.27;100233.59;4411260;32;20113;-81
2023/12/17 04:06:25;;;;;;;25.60;9.40;;;;;;;5.54;71.89;100226.59;4410414;32;20452;-81
2023/12/17 04:08:52;;;;;;;18.48;8.25;;;;;;;5.51;72.25;100220.56;4410828;32;20112;-81
2023/12/17 04:11:21;;;;;;;26.23;8.35;;;;;;;5.27;72.72;100210.03;4410299;32;20158;-82
2023/12/17 04:13:48;;;;;;;18.58;8.20;;;;;;;4.89;75.26;100207.81;4410479;32;20152;-82
2023/12/17 04:16:15;;;;;;;26.08;8.95;;;;;;;5.38;74.06;100210.16;4410563;32;20107;-81
2023/12/17 04:18:42;;;;;;;23.85;8.48;;;;;;;4.76;76.34;100202.47;4409724;32;20098;-82
2023/12/17 04:21:09;;;;;;;24.75;8.80;;;;;;;5.11;75.51;100191.06;4410181;32;20077;-82
2023/12/17 04:23:36;;;;;;;19.37;8.25;;;;;;;4.93;75.14;100191.66;4410620;32;20090;-82
2023/12/17 04:26:04;;;;;;;22.20;8.13;;;;;;;4.99;75.91;100200.25;4410707;32;20102;-82
2023/12/17 04:28:31;;;;;;;21.05;7.12;;;;;;;5.29;74.36;100195.53;4409005;32;20078;-82
2023/12/17 04:30:58;;;;;;;20.42;8.63;;;;;;;5.31;74.70;100193.00;4410563;32;20108;-82
2023/12/17 04:33:25;;;;;;;17.58;7.40;;;;;;;5.30;74.55;100194.69;4410306;32;20198;-81
2023/12/17 04:35:52;;;;;;;19.15;7.35;;;;;;;5.48;73.91;100191.53;4410820;32;20102;-82
2023/12/17 04:38:19;;;;;;;17.02;6.75;;;;;;;5.37;74.90;100186.28;4411764;32;20090;-81
2023/12/17 04:40:46;;;;;;;18.45;6.93;;;;;;;5.54;73.74;100190.75;4413465;32;20143;-82
2023/12/17 04:43:13;;;;;;;20.60;6.87;;;;;;;6.03;70.96;100190.44;4413142;32;20153;-82
2023/12/17 04:45:40;;;;;;;22.13;8.10;;;;;;;5.79;71.17;100188.47;4412847;32;20156;-81
2023/12/17 04:48:07;;;;;;;18.73;7.53;;;;;;;5.91;70.70;100187.75;4411745;32;20169;-81
2023/12/17 04:50:34;;;;;;;19.92;6.90;;;;;;;5.89;70.31;100173.19;4411491;32;20082;-82
2023/12/17 04:53:01;;;;;;;18.25;6.93;;;;;;;5.74;70.67;100181.56;4411196;32;20105;-81
2023/12/17 04:55:28;;;;;;;15.70;6.75;;;;;;;5.46;72.74;100185.53;4410621;32;20156;-82
2023/12/17 04:57:55;;;;;;;18.73;7.37;;;;;;;5.58;72.56;100177.13;4410935;32;20433;-81
2023/12/17 05:00:22;;;;;;;20.73;7.05;;;;;;;5.79;71.05;100185.91;4410945;32;20093;-81
2023/12/17 05:02:49;;;;;;;16.15;6.78;;;;;;;5.70;71.00;100184.94;4410500;32;20094;-82
2023/12/17 05:05:16;;;;;;;16.25;6.65;;;;;;;5.43;72.08;100183.78;4410734;32;20513;-81
2023/12/17 05:07:44;;;;;;;18.10;7.40;;;;;;;4.84;74.66;100183.84;4410553;32;20145;-81
2023/12/17 05:10:11;;;;;;;19.87;7.90;;;;;;;5.15;74.15;100182.59;4409662;32;20423;-81
2023/12/17 05:12:38;;;;;;;19.60;7.37;;;;;;;4.96;75.56;100193.41;4410317;32;20094;-81
2023/12/17 05:15:05;;;;;;;17.50;7.05;;;;;;;5.07;75.63;100196.09;4410526;32;20478;-81
2023/12/17 05:17:32;;;;;;;21.73;8.23;;;;;;;5.51;72.98;100197.53;4410205;32;20181;-82
2023/12/17 05:19:59;;;;;;;18.67;8.88;;;;;;;5.81;70.55;100189.31;4410448;32;20338;-82
2023/12/17 05:22:26;;;;;;;22.35;7.85;;;;;;;5.59;70.82;100197.63;4410247;32;20459;-81
2023/12/17 05:24:53;;;;;;;17.75;7.68;;;;;;;5.57;70.54;100183.94;4410626;32;20141;-81
2023/12/17 05:27:20;;;;;;;19.70;7.50;;;;;;;5.26;71.55;100189.53;4410712;32;20094;-81
2023/12/17 05:29:47;;;;;;;18.30;8.40;;;;;;;5.29;71.07;100190.44;4408958;32;20112;-81
2023/12/17 05:32:14;;;;;;;19.25;8.32;;;;;;;5.08;72.66;100190.16;4410471;32;20094;-82
2023/12/17 05:34:41;;;;;;;19.30;8.18;;;;;;;5.27;71.27;100189.56;4410608;32;20086;-82
2023/12/17 05:37:08;;;;;;;17.60;7.12;;;;;;;5.29;71.90;100192.97;4410031;32;20568;-82
2023/12/17 05:39:35;;;;;;;18.33;7.20;;;;;;;5.09;72.70;100195.28;4410415;32;20527;-81
2023/12/17 05:42:03;;;;;;;18.52;7.40;;;;;;;4.92;73.42;100197.63;4410659;32;20086;-82
2023/12/17 05:44:30;;;;;;;17.10;7.00;;;;;;;5.45;72.23;100206.84;4410451;32;20098;-81
2023/12/17 05:46:57;;;;;;;18.77;7.60;;;;;;;5.32;72.38;100202.44;4410242;32;20101;-82
2023/12/17 05:49:24;;;;;;;16.83;6.72;;;;;;;5.57;70.76;100206.13;4410171;32;20082;-82
2023/12/17 05:51:51;;;;;;;19.15;7.00;;;;;;;5.52;71.87;100204.34;4409433;32;20130;-82
2023/12/17 05:54:19;;;;;;;17.83;7.10;;;;;;;5.57;72.23;100201.00;4409923;32;20138;-82
2023/12/17 05:56:46;;;;;;;16.60;5.55;;;;;;;5.66;71.47;100214.78;4410002;32;20108;-82
2023/12/17 05:59:13;;;;;;;15.30;6.47;;;;;;;5.66;71.59;100222.47;4409348;32;20550;-82
2023/12/17 06:01:40;;;;;;;14.38;5.97;;;;;;;5.81;70.36;100222.63;4409895;32;20108;-82
2023/12/17 06:04:07;;;;;;;17.42;6.37;;;;;;;5.86;69.86;100225.25;4409849;32;20472;-82
2023/12/17 06:06:34;;;;;;;15.18;6.50;;;;;;;6.07;69.01;100237.47;4409424;32;20094;-82
2023/12/17 06:09:01;;;;;;;16.95;6.53;;;;;;;5.98;68.00;100237.37;4409904;32;20078;-82
2023/12/17 06:11:28;;;;;;;18.33;6.22;;;;;;;6.37;66.95;100236.87;4409159;32;20116;-81
2023/12/17 06:13:55;;;;;;;22.00;6.78;;;;;;;6.55;65.74;100237.06;4410012;32;20120;-82
2023/12/17 06:16:22;;;;;;;17.92;6.75;;;;;;;6.68;65.42;100243.13;4409975;32;20086;-82
2023/12/17 06:18:50;;;;;;;21.52;7.22;;;;;;;6.38;66.41;100241.19;4396525;32;20135;-82
2023/12/17 06:21:22;;;;;;;19.10;7.20;;;;;;;6.38;66.67;100230.94;4409597;32;20398;-82
2023/12/17 06:23:50;;;;;;;16.58;7.18;;;;;;;6.69;65.95;100229.47;4410624;32;20086;-82
2023/12/17 06:26:19;;;;;;;18.00;7.20;;;;;;;6.86;64.87;100224.47;4409819;32;20461;-82
2023/12/17 06:28:46;;;;;;;20.85;6.25;;;;;;;6.66;64.03;100221.75;4410675;32;20108;-82
2023/12/17 06:31:13;;;;;;;16.48;6.28;;;;;;;7.00;63.13;100225.41;4410651;32;20151;-82
2023/12/17 06:33:40;;;;;;;15.93;6.03;;;;;;;6.59;64.15;100223.44;4403912;32;20148;-82
2023/12/17 06:36:08;;;;;;;15.65;6.05;;;;;;;6.89;62.86;100227.03;4409962;32;20097;-82
2023/12/17 06:38:35;;;;;;;15.32;5.62;;;;;;;6.17;65.88;100211.09;4408576;32;20105;-82
2023/12/17 06:41:02;;;;;;;14.75;5.82;;;;;;;6.22;66.34;100216.25;4395736;32;20437;-82
2023/12/17 06:43:29;;;;;;;15.05;5.82;;;;;;;5.76;68.99;100221.75;4411422;32;20129;-82
2023/12/17 06:45:56;;;;;;;15.00;5.15;;;;;;;6.33;67.43;100223.19;4411345;32;20109;-82
2023/12/17 06:48:23;;;;;;;17.60;5.90;;;;;;;6.73;65.74;100226.09;4410950;32;20082;-82
2023/12/17 06:50:50;;;;;;;15.43;5.43;;;;;;;6.78;65.64;100231.25;4411204;32;20124;-82
2023/12/17 06:53:17;;;;;;;12.80;4.55;;;;;;;6.65;66.06;100231.16;4411389;32;20101;-82
2023/12/17 06:55:44;;;;;;;13.00;5.20;;;;;;;6.50;65.99;100225.06;4410701;32;20121;-82
2023/12/17 06:58:12;;;;;;;15.05;5.07;;;;;;;6.82;65.33;100231.28;4411025;32;20103;-82
2023/12/17 07:00:39;;;;;;;13.27;5.45;;;;;;;7.03;64.34;100233.16;4411106;32;20150;-81
2023/12/17 07:03:06;;;;;;;15.57;5.28;;;;;;;6.62;65.70;100232.84;4411345;32;20112;-82
2023/12/17 07:05:33;;;;;;;15.02;5.70;;;;;;;6.90;64.34;100233.87;4411487;32;20104;-81
2023/12/17 07:08:00;;;;;;;14.05;5.10;;;;;;;6.89;64.37;100233.03;4411033;32;20077;-82
2023/12/17 07:10:27;;;;;;;13.62;5.32;;;;;;;6.65;65.07;100230.28;4411235;32;20137;-81
2023/12/17 07:12:54;;;;;;;14.50;5.43;;;;;;;6.92;64.06;100234.78;4411950;32;20102;-82
2023/12/17 07:15:21;;;;;;;17.12;6.37;;;;;;;7.11;63.34;100228.03;4411077;32;20076;-82
2023/12/17 07:17:48;;;;;;;19.95;6.78;;;;;;;7.18;62.92;100224.66;4410997;32;20070;-82
2023/12/17 07:20:16;;;;;;;15.48;6.35;;;;;;;6.81;64.64;100221.88;4410999;32;20094;-82
2023/12/17 07:22:43;;;;;;;16.90;6.53;;;;;;;7.19;63.29;100222.09;4410548;32;20106;-82
2023/12/17 07:25:10;;;;;;;17.75;6.45;;;;;;;7.20;63.42;100216.13;4410578;32;20499;-81
2023/12/17 07:27:37;;;;;;;15.98;6.30;;;;;;;7.03;64.23;100222.88;4410783;32;20117;-82
2023/12/17 07:30:05;;;;;;;16.33;6.28;;;;;;;7.44;63.25;100232.50;4410114;32;20156;-82
2023/12/17 07:32:32;;;;;;;15.85;6.07;;;;;;;7.85;61.32;100224.94;4410664;32;20086;-82
2023/12/17 07:34:59;;;;;;;15.02;5.75;;;;;;;8.24;60.26;100233.63;4410699;32;20082;-82
2023/12/17 07:37:26;;;;;;;15.55;6.68;;;;;;;8.79;58.34;100225.94;4410471;32;20455;-82
2023/12/17 07:39:53;;;;;;;17.52;6.62;;;;;;;8.97;57.66;100219.06;4410601;32;20130;-83
2023/12/17 07:42:20;;;;;;;15.63;5.78;;;;;;;8.54;57.83;100213.09;4410670;32;20101;-83
2023/12/17 07:44:49;;;;;;;16.55;6.30;;;;;;;8.58;58.30;100209.66;4410118;32;20101;-82
2023/12/17 07:47:16;;;;;;;15.77;6.62;;;;;;;8.45;58.46;100207.09;4410881;32;20082;-82
2023/12/17 07:49:43;;;;;;;17.23;7.53;;;;;;;8.46;58.48;100214.78;4410113;32;20153;-82
2023/12/17 07:52:11;;;;;;;18.23;8.25;;;;;;;8.96;56.99;100219.91;4410603;32;20094;-83
2023/12/17 07:54:38;;;;;;;16.92;7.45;;;;;;;9.35;55.92;100222.38;4409844;32;20186;-83
2023/12/17 07:57:05;;;;;;;16.95;7.12;;;;;;;9.50;55.11;100220.63;4396396;32;20074;-83
2023/12/17 07:59:32;;;;;;;17.40;6.00;;;;;;;9.66;54.64;100211.09;4396814;32;20090;-83
2023/12/17 08:01:59;;;;;;;16.48;6.40;;;;;;;9.67;54.38;100217.97;4410397;32;20150;-83
2023/12/17 08:04:26;;;;;;;16.40;6.78;;;;;;;9.68;54.56;100216.28;4410011;32;20089;-83
2023/12/17 08:06:53;;;;;;;18.92;7.55;;;;;;;10.00;54.23;100222.12;4410422;32;20136;-83
2023/12/17 08:09:20;;;;;;;21.35;7.70;;;;;;;10.71;53.06;100225.91;4410287;32;20122;-83
2023/12/17 08:11:47;;;;;;;17.08;7.85;;;;;;;11.38;51.52;100220.94;4409889;32;20156;-84
2023/12/17 08:14:14;;;;;;;15.15;6.85;;;;;;;11.91;49.65;100216.84;4410396;32;20144;-83
2023/12/17 08:16:43;;;;;;;18.25;7.82;;;;;;;12.72;47.24;100224.25;4410207;32;20102;-84
2023/12/17 08:19:10;;;;;;;16.15;6.10;;;;;;;12.62;46.55;100223.53;4410043;32;20123;-84
2023/12/17 08:21:37;;;;;;;15.38;7.18;;;;;;;12.72;46.61;100227.69;4410316;32;20104;-84
2023/12/17 08:24:05;;;;;;;17.00;7.00;;;;;;;12.14;47.54;100233.78;4410355;32;20132;-84
2023/12/17 08:26:32;;;;;;;15.05;6.20;;;;;;;12.51;47.04;100230.63;4409854;32;20082;-83
2023/12/17 08:28:59;;;;;;;15.73;5.68;;;;;;;12.32;47.12;100231.78;4410389;32;20438;-84
2023/12/17 08:31:26;;;;;;;15.85;5.97;;;;;;;11.72;48.48;100221.41;4410289;32;20145;-83
2023/12/17 08:33:53;;;;;;;11.15;5.00;;;;;;;11.90;48.71;100225.50;4409967;32;20077;-84
2023/12/17 08:36:23;;;;;;;13.82;5.37;;;;;;;11.95;48.12;100221.13;4410093;32;20082;-83
2023/12/17 08:38:50;;;;;;;15.27;4.93;;;;;;;11.96;47.95;100220.25;4409845;32;20094;-83
2023/12/17 08:41:17;;;;;;;13.45;4.80;;;;;;;11.23;49.54;100229.72;4410249;32;20098;-83
2023/12/17 08:43:45;;;;;;;13.18;5.07;;;;;;;11.26;49.80;100225.38;4410287;32;20129;-83
2023/12/17 08:46:12;;;;;;;14.32;5.07;;;;;;;11.29;50.04;100222.78;4409698;32;20077;-83
2023/12/17 08:48:39;;;;;;;13.85;5.55;;;;;;;11.55;49.20;100211.25;4410126;32;20581;-84
2023/12/17 08:51:06;;;;;;;12.02;5.05;;;;;;;11.92;48.73;100206.50;4409980;32;20401;-84
2023/12/17 08:53:33;;;;;;;10.90;4.55;;;;;;;11.85;48.33;100203.13;4409891;32;20483;-84
2023/12/17 08:56:02;;;;;;;10.05;4.12;;;;;;;11.45;48.89;100210.50;4409951;32;20161;-84
2023/12/17 08:58:29;;;;;;;14.10;4.45;;;;;;;11.30;49.42;100216.72;4410135;32;20162;-83
2023/12/17 09:00:56;;;;;;;11.20;3.92;;;;;;;11.31;49.50;100225.34;4409761;32;20102;-84
2023/12/17 09:03:23;;;;;;;11.75;3.67;;;;;;;11.30;49.70;100228.78;4410197;32;20077;-83
2023/12/17 09:05:50;;;;;;;10.13;3.83;;;;;;;11.87;48.67;100223.81;4409501;32;20152;-83
2023/12/17 09:08:17;;;;;;;11.48;4.00;;;;;;;11.98;48.46;100231.44;4409628;32;20105;-84
2023/12/17 09:10:44;;;;;;;12.25;4.30;;;;;;;12.60;46.83;100227.03;4409768;32;20086;-83
2023/12/17 09:13:11;;;;;;;12.35;4.30;;;;;;;12.71;46.49;100217.34;4409960;32;20082;-84
2023/12/17 09:15:39;;;;;;;9.52;3.90;;;;;;;12.87;45.68;100217.97;4409512;32;20139;-84
2023/12/17 09:18:06;;;;;;;11.25;4.47;;;;;;;12.58;46.53;100221.91;4409945;32;20129;-84
2023/12/17 09:20:33;;;;;;;10.98;3.92;;;;;;;12.77;46.80;100227.63;4409874;32;20117;-84
2023/12/17 09:23:00;;;;;;;12.35;4.47;;;;;;;12.50;46.27;100228.06;4409681;32;20106;-84
2023/12/17 09:25:27;;;;;;;10.60;4.57;;;;;;;12.19;47.41;100227.69;4409745;32;20154;-83
2023/12/17 09:27:55;;;;;;;14.15;4.20;;;;;;;12.40;47.06;100230.81;4409570;32;20098;-83
2023/12/17 09:30:22;;;;;;;15.07;4.75;;;;;;;12.37;47.50;100224.81;4409677;32;20147;-84
2023/12/17 09:32:49;;;;;;;11.65;4.43;;;;;;;12.43;47.04;100219.53;4409877;32;20149;-84
2023/12/17 09:35:19;;;;;;;11.88;4.20;;;;;;;12.43;46.99;100206.59;4409375;32;20219;-83
2023/12/17 09:37:47;;;;;;;12.30;4.00;;;;;;;12.14;48.31;100217.41;4396118;32;20127;-83
2023/12/17 09:40:15;;;;;;;12.25;4.12;;;;;;;12.01;48.79;100231.38;4409719;32;20437;-84
2023/12/17 09:42:43;;;;;;;9.52;3.67;;;;;;;12.05;47.80;100228.75;4409471;32;20090;-83
2023/12/17 09:45:14;;;;;;;11.15;4.12;;;;;;;12.35;47.89;100221.41;4395923;32;20157;-83
2023/12/17 09:47:42;;;;;;;11.57;3.92;;;;;;;12.01;47.93;100218.44;4409585;32;20101;-84
2023/12/17 09:50:13;;;;;;;13.48;3.87;;;;;;;11.97;48.32;100212.47;4409338;32;20112;-83
2023/12/17 09:52:44;;;;;;;13.05;3.95;;;;;;;11.95;48.50;100221.13;4409607;32;20104;-83
2023/12/17 09:55:14;;;;;;;11.88;4.00;;;;;;;12.31;47.31;100212.81;4409507;32;20555;-83
2023/12/17 09:57:43;;;;;;;11.05;3.92;;;;;;;12.67;47.46;100219.16;4395553;32;20098;-83
2023/12/17 10:00:12;;;;;;;9.70;3.70;;;;;;;12.92;46.22;100217.00;4409453;32;20104;-83
2023/12/17 10:02:40;;;;;;;8.35;3.28;;;;;;;12.32;47.23;100209.34;4409530;32;20082;-83
2023/12/17 10:05:08;;;;;;;8.90;3.47;;;;;;;12.04;47.81;100218.41;4409064;32;20086;-83
2023/12/17 10:07:37;;;;;;;12.43;3.83;;;;;;;12.26;47.71;100216.37;4409443;32;20648;-83
2023/12/17 10:10:06;;;;;;;8.65;3.20;;;;;;;11.87;48.66;100219.50;4408832;32;20095;-83
2023/12/17 10:12:33;;;;;;;12.37;3.55;;;;;;;12.31;48.16;100222.31;4409450;32;20082;-83
2023/12/17 10:15:00;;;;;;;10.05;3.50;;;;;;;11.57;48.90;100215.53;4395502;32;20128;-83
2023/12/17 10:17:27;;;;;;;10.38;3.53;;;;;;;11.58;49.57;100208.62;4409883;32;20117;-83
2023/12/17 10:19:54;;;;;;;9.10;3.33;;;;;;;11.79;49.81;100198.03;4410915;32;20098;-83
2023/12/17 10:22:21;;;;;;;15.50;3.80;;;;;;;11.70;50.05;100200.75;4411103;32;20101;-83
2023/12/17 10:24:48;;;;;;;11.82;3.15;;;;;;;12.19;48.83;100188.88;4410771;32;20086;-83
2023/12/17 10:27:16;;;;;;;9.88;3.20;;;;;;;12.21;47.89;100187.09;4410899;32;20090;-83
2023/12/17 10:29:48;;;;;;;10.60;3.50;;;;;;;12.29;47.70;100180.94;4410876;32;20429;-83
2023/12/17 10:32:22;;;;;;;10.45;3.55;;;;;;;12.37;47.88;100181.66;4410891;32;20105;-83
2023/12/17 10:34:51;;;;;;;9.43;3.28;;;;;;;11.83;48.73;100178.19;4411082;32;20108;-83
2023/12/17 10:37:21;;;;;;;10.40;3.30;;;;;;;11.80;48.63;100175.63;4409780;32;20097;-83
2023/12/17 10:39:51;;;;;;;9.63;3.30;;;;;;;12.26;48.21;100169.78;4410586;32;20098;-83
2023/12/17 10:42:19;;;;;;;11.65;3.45;;;;;;;12.31;48.54;100163.63;4411025;32;20101;-83
2023/12/17 10:44:48;;;;;;;11.20;3.50;;;;;;;12.55;47.08;100167.56;4410872;32;20108;-82
2023/12/17 10:47:23;;;;;;;10.60;3.47;;;;;;;12.22;48.44;100160.34;4410637;32;20090;-83
2023/12/17 10:49:53;;;;;;;10.73;3.72;;;;;;;12.34;47.65;100158.44;4410837;32;20153;-83
2023/12/17 10:52:23;;;;;;;10.65;3.03;;;;;;;12.06;48.01;100159.72;4410577;32;20516;-83
2023/12/17 10:54:50;;;;;;;10.63;3.05;;;;;;;12.10;48.14;100151.88;4410995;32;20593;-83
2023/12/17 10:57:21;;;;;;;11.18;3.33;;;;;;;12.40;46.82;100160.03;4410788;32;20161;-83
2023/12/17 10:59:50;;;;;;;10.57;3.17;;;;;;;12.43;47.55;100150.47;4396961;32;20102;-83
2023/12/17 11:02:19;;;;;;;9.10;3.00;;;;;;;12.34;47.35;100155.84;4409593;32;20086;-83
2023/12/17 11:04:45;;;;;;;9.10;3.17;;;;;;;12.67;46.91;100150.97;4409907;32;20082;-83
2023/12/17 11:07:21;;;;;;;11.07;3.10;;;;;;;12.63;46.50;100157.06;4410633;32;20098;-83
2023/12/17 11:10:06;;;;;;;11.98;3.20;;;;;;;12.21;46.90;100149.13;4399557;32;20098;-83
2023/12/17 11:12:36;;;;;;;9.52;3.12;;;;;;;12.47;46.71;100148.72;4411827;32;20173;-83
2023/12/17 11:15:03;;;;;;;7.62;2.92;;;;;;;12.48;46.14;100140.06;4410778;32;20132;-83
2023/12/17 11:17:30;;;;;;;11.15;3.20;;;;;;;12.75;46.16;100143.88;4411025;32;20387;-83
2023/12/17 11:20:01;;;;;;;8.15;3.05;;;;;;;12.25;46.51;100142.19;4411696;32;20109;-83
2023/12/17 11:22:29;;;;;;;10.60;3.05;;;;;;;12.00;46.96;100139.97;4411595;32;20073;-83
2023/12/17 11:24:57;;;;;;;7.93;2.92;;;;;;;11.70;47.85;100132.66;4397664;32;20077;-83